»·PEaware :: N218GT KBUR-KLAS

N218GT :: KBUR-KLAS

FLIGHT INFORMATION

Flight Status: Arrived
Operator: Privately registered:
United States
More flights under this callsign
Pilot: Joe C. (19058)
Aircraft: ECLIPSE 500
(EA50)
More flights by this aircraft type
Origin: KBUR Bob Hope-Burbank
United States
Destination: KLAS McCarran Intl
United States
More flights between these airports :: More routes between these airports
Route: SLAPP1 MISEN KEPEC6
File this flight plan on PilotEdge
Remarks: I 5 rating
Altitude:
(Current/Filed)
29,000ft
Speed:
(Current/Filed)
375kts
Departed: 29-Sep-18 02:36 PM
Arrived: 29-Sep-18 03:27 PM
Distance/Time
Traveled:
193nm/0:51
Distance/Time
To Go:
Arrived

Flight Plot

Page will automatically refresh every two minutes.

Flight plan parsing failed; only flown route is shown


Map Options




Map Legend


Flown Route
Filed Route
Departure Airport
Arrival Airport
Navaid (VOR, NDB)
Fix

Horizontal Profiles

Position Reports

Time Latitude Longitude Heading Altitude Ground
Speed
29-Sep-18 14:19 34.200203 -118.358746 263 720ft 0kts
29-Sep-18 14:20 34.200203 -118.358746 263 720ft 0kts
29-Sep-18 14:21 34.200203 -118.358746 263 720ft 0kts
29-Sep-18 14:22 34.200203 -118.358746 263 720ft 0kts
29-Sep-18 14:23 34.200203 -118.358746 263 720ft 0kts
29-Sep-18 14:24 34.200203 -118.358746 263 720ft 0kts
29-Sep-18 14:25 34.200203 -118.358746 263 720ft 0kts
29-Sep-18 14:26 34.200203 -118.358746 263 720ft 0kts
29-Sep-18 14:27 34.199793 -118.358859 116 718ft 0kts
29-Sep-18 14:28 34.199793 -118.358859 116 718ft 0kts
29-Sep-18 14:29 34.199793 -118.358859 116 718ft 0kts
29-Sep-18 14:30 34.199793 -118.358859 116 718ft 0kts
29-Sep-18 14:31 34.199632 -118.358455 101 717ft 14kts
29-Sep-18 14:32 34.204263 -118.359384 347 735ft 31kts
29-Sep-18 14:33 34.210817 -118.361202 346 766ft 35kts
29-Sep-18 14:34 34.212077 -118.361398 42 768ft 0kts
29-Sep-18 14:35 34.212191 -118.361250 58 768ft 9kts
29-Sep-18 14:36 34.211988 -118.360359 166 766ft 0kts
29-Sep-18 14:37 34.211988 -118.360359 166 766ft 0kts
29-Sep-18 14:38 34.204249 -118.358346 172 873ft 112kts
29-Sep-18 14:39 34.172653 -118.389923 222 2935ft 185kts
29-Sep-18 14:40 34.141523 -118.431445 252 5298ft 178kts
29-Sep-18 14:41 34.179208 -118.445509 35 8170ft 207kts
29-Sep-18 14:42 34.232213 -118.414736 19 10856ft 220kts
29-Sep-18 14:43 34.291680 -118.393371 11 13271ft 229kts
29-Sep-18 14:44 34.354545 -118.376206 8 15368ft 238kts
29-Sep-18 14:45 34.418746 -118.352399 18 17329ft 248kts
29-Sep-18 14:46 34.480654 -118.313316 38 18960ft 267kts
29-Sep-18 14:47 34.540139 -118.254982 39 20100ft 269kts
29-Sep-18 14:48 34.597958 -118.197404 39 21512ft 272kts
29-Sep-18 14:49 34.654930 -118.139036 54 22912ft 278kts
29-Sep-18 14:50 34.676605 -118.050373 82 24317ft 278kts
29-Sep-18 14:51 34.691732 -117.957738 91 25620ft 281kts
29-Sep-18 14:52 34.698072 -117.862413 91 26833ft 287kts
29-Sep-18 14:53 34.704051 -117.764900 93 27971ft 292kts
29-Sep-18 14:54 34.708122 -117.665902 93 28959ft 300kts
29-Sep-18 14:55 34.712320 -117.556825 92 29007ft 345kts
29-Sep-18 14:56 34.734025 -117.436606 75 29006ft 384kts
29-Sep-18 14:57 34.767270 -117.309479 75 28998ft 406kts
29-Sep-18 14:58 34.802292 -117.176690 75 28977ft 419kts
29-Sep-18 14:59 34.838132 -117.040348 75 28945ft 427kts
29-Sep-18 15:00 34.874162 -116.902648 74 28930ft 427kts
29-Sep-18 15:01 34.910069 -116.764950 74 28931ft 427kts
29-Sep-18 15:02 34.969338 -116.641527 56 27369ft 423kts
29-Sep-18 15:03 35.034598 -116.524736 57 25514ft 413kts
29-Sep-18 15:04 35.098498 -116.411644 51 23984ft 396kts
29-Sep-18 15:05 35.174373 -116.314188 47 22851ft 397kts
29-Sep-18 15:06 35.250041 -116.218923 47 21223ft 386kts
29-Sep-18 15:07 35.323657 -116.126252 47 19605ft 375kts
29-Sep-18 15:08 35.395275 -116.035899 47 18057ft 366kts
29-Sep-18 15:09 35.465128 -115.947539 47 16550ft 356kts
29-Sep-18 15:10 35.533063 -115.861383 47 15050ft 347kts
29-Sep-18 15:11 35.599149 -115.777356 47 13558ft 339kts
29-Sep-18 15:12 35.663868 -115.694856 47 12941ft 336kts
29-Sep-18 15:13 35.728769 -115.611927 47 13056ft 337kts
29-Sep-18 15:14 35.813992 -115.576430 3 12966ft 328kts
29-Sep-18 15:15 35.902111 -115.568476 0 12950ft 327kts
29-Sep-18 15:16 35.974481 -115.521705 62 12089ft 291kts
29-Sep-18 15:17 36.010761 -115.430394 68 11046ft 294kts
29-Sep-18 15:18 36.025783 -115.335395 97 10348ft 280kts
29-Sep-18 15:19 36.020438 -115.238105 98 9163ft 280kts
29-Sep-18 15:20 36.014693 -115.147629 99 8327ft 257kts
29-Sep-18 15:21 36.044133 -115.080218 11 8048ft 268kts
29-Sep-18 15:22 36.115235 -115.060585 11 7204ft 259kts
29-Sep-18 15:23 36.185301 -115.040993 11 5881ft 252kts
29-Sep-18 15:24 36.244755 -115.051552 278 5108ft 214kts
29-Sep-18 15:25 36.204771 -115.092862 205 4943ft 211kts
29-Sep-18 15:26 36.159897 -115.120070 206 4134ft 153kts
29-Sep-18 15:27 36.123856 -115.142049 207 2863ft 128kts
29-Sep-18 15:28 36.096770 -115.158077 207 2125ft 93kts
29-Sep-18 15:29 36.089366 -115.163412 295 2127ft 0kts

Navigation Log

Ident Type
Flight plan parsing failed, navigation log unavailable